createdAt,value
2017-09-28T00:00:00.315Z,102310
2017-09-28T00:02:29.672Z,102312
2017-09-28T00:04:58.770Z,102311
2017-09-28T00:07:28.006Z,102318
2017-09-28T00:09:57.892Z,102318
2017-09-28T00:12:27.085Z,102318
2017-09-28T00:14:56.228Z,102320
2017-09-28T00:17:26.019Z,102321
2017-09-28T00:19:55.313Z,102317
2017-09-28T00:22:24.618Z,102318
2017-09-28T00:24:53.997Z,102314
2017-09-28T00:27:23.313Z,102314
2017-09-28T00:29:52.732Z,102317
2017-09-28T00:32:22.318Z,102312
2017-09-28T00:34:52.430Z,102320
2017-09-28T00:37:21.757Z,102320
2017-09-28T00:39:53.104Z,102317
2017-09-28T00:42:22.297Z,102320
2017-09-28T00:44:51.627Z,102320
2017-09-28T00:47:21.086Z,102312
2017-09-28T00:49:50.254Z,102316
2017-09-28T00:52:19.501Z,102316
2017-09-28T00:54:49.388Z,102318
2017-09-28T00:57:19.525Z,102314
2017-09-28T00:59:48.812Z,102316
2017-09-28T01:02:19.901Z,102315
2017-09-28T01:04:49.177Z,102320
2017-09-28T01:07:18.373Z,102323
2017-09-28T01:09:47.780Z,102321
2017-09-28T01:12:16.977Z,102316
2017-09-28T01:14:46.104Z,102311
2017-09-28T01:17:16.046Z,102307
2017-09-28T01:19:45.265Z,102301
2017-09-28T01:22:14.456Z,102303
2017-09-28T01:24:44.499Z,102294
2017-09-28T01:27:13.648Z,102298
2017-09-28T01:29:42.997Z,102297
2017-09-28T01:32:12.567Z,102295
2017-09-28T01:34:41.682Z,102292
2017-09-28T01:37:10.835Z,102289
2017-09-28T01:39:40.434Z,102293
2017-09-28T01:42:09.578Z,102294
2017-09-28T01:44:38.749Z,102283
2017-09-28T01:47:08.254Z,102279
2017-09-28T01:49:37.384Z,102277
2017-09-28T01:52:06.556Z,102288
2017-09-28T01:54:36.598Z,102288
2017-09-28T01:57:06.514Z,102294
2017-09-28T01:59:35.662Z,102291
2017-09-28T02:02:07.036Z,102287
2017-09-28T02:04:36.157Z,102288
2017-09-28T02:07:05.304Z,102290
2017-09-28T02:09:34.553Z,102285
2017-09-28T02:12:04.428Z,102276
2017-09-28T02:14:33.544Z,102278
2017-09-28T02:17:04.054Z,102277
2017-09-28T02:19:34.015Z,102280
2017-09-28T02:22:03.202Z,102274
2017-09-28T02:24:32.378Z,102279
2017-09-28T02:27:01.558Z,102278
2017-09-28T02:29:30.681Z,102271
2017-09-28T02:32:00.148Z,102269
2017-09-28T02:34:30.281Z,102274
2017-09-28T02:37:00.216Z,102273
2017-09-28T02:39:29.731Z,102276
2017-09-28T02:41:58.841Z,102277
2017-09-28T02:44:28.014Z,102277
2017-09-28T02:46:58.313Z,102273
2017-09-28T02:49:27.401Z,102275
2017-09-28T02:51:57.293Z,102279
2017-09-28T02:54:27.635Z,102280
2017-09-28T02:56:56.848Z,102282
2017-09-28T02:59:25.971Z,102279
2017-09-28T03:01:55.492Z,102284
2017-09-28T03:04:24.658Z,102283
2017-09-28T03:06:55.419Z,102283
2017-09-28T03:09:24.802Z,102281
2017-09-28T03:11:54.117Z,102284
2017-09-28T03:14:23.374Z,102278
2017-09-28T03:16:52.567Z,102288
2017-09-28T03:19:21.806Z,102285
2017-09-28T03:21:51.010Z,102281
2017-09-28T03:24:20.645Z,102285
2017-09-28T03:26:49.893Z,102275
2017-09-28T03:29:19.142Z,102277
2017-09-28T03:31:48.746Z,102277
2017-09-28T03:34:17.968Z,102279
2017-09-28T03:36:48.069Z,102273
2017-09-28T03:39:17.658Z,102276
2017-09-28T03:41:47.675Z,102276
2017-09-28T03:44:16.855Z,102281
2017-09-28T03:46:46.370Z,102283
2017-09-28T03:49:16.385Z,102282
2017-09-28T03:51:46.302Z,102274
2017-09-28T03:54:15.765Z,102271
2017-09-28T03:56:45.927Z,102271
2017-09-28T03:59:15.122Z,102266
2017-09-28T04:01:44.409Z,102262
2017-09-28T04:04:13.554Z,102267
2017-09-28T04:06:42.670Z,102267
2017-09-28T04:09:11.998Z,102265
2017-09-28T04:11:41.931Z,102264
2017-09-28T04:14:11.080Z,102267
2017-09-28T04:16:41.508Z,102261
2017-09-28T04:19:10.614Z,102249
2017-09-28T04:21:39.745Z,102253
2017-09-28T04:24:09.286Z,102256
2017-09-28T04:26:38.446Z,102252
2017-09-28T04:29:07.555Z,102248
2017-09-28T04:31:36.982Z,102249
2017-09-28T04:34:06.865Z,102244
2017-09-28T04:36:36.012Z,102242
2017-09-28T04:39:06.367Z,102249
2017-09-28T04:41:36.258Z,102251
2017-09-28T04:44:05.399Z,102250
2017-09-28T04:46:34.656Z,102255
2017-09-28T04:49:03.812Z,102251
2017-09-28T04:51:33.755Z,102257
2017-09-28T04:54:03.431Z,102258
2017-09-28T04:56:34.359Z,102251
2017-09-28T04:59:03.512Z,102255
2017-09-28T05:01:33.644Z,102248
2017-09-28T05:04:02.818Z,102242
2017-09-28T05:06:32.709Z,102242
2017-09-28T05:09:02.084Z,102245
2017-09-28T05:11:31.976Z,102242
2017-09-28T05:14:01.142Z,102241
2017-09-28T05:16:30.664Z,102242
2017-09-28T05:19:00.566Z,102243
2017-09-28T05:21:29.692Z,102238
2017-09-28T05:23:58.992Z,102241
2017-09-28T05:26:28.509Z,102247
2017-09-28T05:28:57.711Z,102244
2017-09-28T05:31:27.209Z,102249
2017-09-28T05:33:56.467Z,102255
2017-09-28T05:36:26.479Z,102261
2017-09-28T05:38:55.823Z,102254
2017-09-28T05:41:25.134Z,102256
2017-09-28T05:43:55.241Z,102269
2017-09-28T05:46:24.761Z,102269
2017-09-28T05:48:54.783Z,102278
2017-09-28T05:51:24.063Z,102273
2017-09-28T05:53:54.097Z,102267
2017-09-28T05:56:23.498Z,102272
2017-09-28T05:58:52.798Z,102272
2017-09-28T06:01:22.312Z,102273
2017-09-28T06:03:51.702Z,102271
2017-09-28T06:06:21.006Z,102277
2017-09-28T06:08:50.817Z,102284
2017-09-28T06:11:20.326Z,102291
2017-09-28T06:13:49.814Z,102287
2017-09-28T06:16:20.158Z,102292
2017-09-28T06:18:49.768Z,102287
2017-09-28T06:21:20.111Z,102286
2017-09-28T06:23:49.486Z,102271
2017-09-28T06:26:18.755Z,102278
2017-09-28T06:28:47.984Z,102284
2017-09-28T06:31:17.662Z,102283
2017-09-28T06:33:46.848Z,102283
2017-09-28T06:36:16.068Z,102281
2017-09-28T06:38:46.551Z,102274
2017-09-28T06:41:15.802Z,102271
2017-09-28T06:43:44.948Z,102276
2017-09-28T06:46:14.361Z,102286
2017-09-28T06:48:43.511Z,102283
2017-09-28T06:51:13.507Z,102297
2017-09-28T06:53:43.725Z,102292
2017-09-28T06:56:13.763Z,102303
2017-09-28T06:58:43.249Z,102309
2017-09-28T07:01:12.828Z,102313
2017-09-28T07:03:41.973Z,102319
2017-09-28T07:06:11.502Z,102317
2017-09-28T07:08:40.786Z,102307
2017-09-28T07:11:09.982Z,102318
2017-09-28T07:13:39.142Z,102321
2017-09-28T07:16:08.707Z,102316
2017-09-28T07:18:38.645Z,102305
2017-09-28T07:21:07.771Z,102295
2017-09-28T07:23:37.192Z,102289
2017-09-28T07:26:07.311Z,102273
2017-09-28T07:28:36.490Z,102261
2017-09-28T07:31:05.860Z,102241
2017-09-28T07:33:35.805Z,102232
2017-09-28T07:36:05.076Z,102233
2017-09-28T07:38:34.566Z,102248
2017-09-28T07:41:03.718Z,102262
2017-09-28T07:43:33.625Z,102312
2017-09-28T07:46:03.975Z,102322
2017-09-28T07:48:33.162Z,102301
2017-09-28T07:51:04.230Z,102319
2017-09-28T07:53:33.830Z,102302
2017-09-28T07:56:03.879Z,102286
2017-09-28T07:58:33.086Z,102291
2017-09-28T08:01:03.046Z,102301
2017-09-28T08:03:32.233Z,102302
2017-09-28T08:06:01.534Z,102315
2017-09-28T08:08:31.990Z,102317
2017-09-28T08:11:01.970Z,102321
2017-09-28T08:13:31.888Z,102314
2017-09-28T08:16:02.126Z,102323
2017-09-28T08:18:31.374Z,102317
2017-09-28T08:21:02.341Z,102314
2017-09-28T08:23:32.484Z,102311
2017-09-28T08:26:01.663Z,102313
2017-09-28T08:28:30.857Z,102316
2017-09-28T08:31:00.272Z,102313
2017-09-28T08:33:30.180Z,102320
2017-09-28T08:36:00.262Z,102331
2017-09-28T08:38:29.597Z,102337
2017-09-28T08:40:58.758Z,102340
2017-09-28T08:43:28.087Z,102339
2017-09-28T08:45:57.538Z,102341
2017-09-28T08:48:28.238Z,102347
2017-09-28T08:50:57.421Z,102342
2017-09-28T08:53:28.990Z,102337
2017-09-28T08:55:58.193Z,102346
2017-09-28T08:58:27.382Z,102348
2017-09-28T09:00:57.021Z,102352
2017-09-28T09:03:26.205Z,102350
2017-09-28T09:05:56.115Z,102349
2017-09-28T09:08:25.310Z,102338
2017-09-28T09:10:54.505Z,102341
2017-09-28T09:13:23.711Z,102336
2017-09-28T09:15:54.030Z,102335
2017-09-28T09:18:24.073Z,102337
2017-09-28T09:20:53.349Z,102317
2017-09-28T09:23:22.803Z,102311
2017-09-28T09:25:56.600Z,102312
2017-09-28T09:28:26.523Z,102322
2017-09-28T09:30:55.698Z,102323
2017-09-28T09:33:24.845Z,102316
2017-09-28T09:35:55.478Z,102301
2017-09-28T09:38:24.698Z,102312
2017-09-28T09:40:54.380Z,102312
2017-09-28T09:43:23.813Z,102319
2017-09-28T09:45:54.016Z,102325
2017-09-28T09:48:23.206Z,102332
2017-09-28T09:50:52.582Z,102327
2017-09-28T09:53:22.013Z,102330
2017-09-28T09:55:51.263Z,102327
2017-09-28T09:58:20.818Z,102336
2017-09-28T10:00:49.986Z,102330
2017-09-28T10:03:19.493Z,102328
2017-09-28T10:05:48.754Z,102334
2017-09-28T10:08:25.227Z,102324
2017-09-28T10:10:58.478Z,102324
2017-09-28T10:13:35.832Z,102322
2017-09-28T10:16:06.667Z,102325
2017-09-28T10:18:35.797Z,102321
2017-09-28T10:21:04.949Z,102329
2017-09-28T10:23:34.429Z,102328
2017-09-28T10:26:04.315Z,102313
2017-09-28T10:28:34.252Z,102306
2017-09-28T10:31:04.146Z,102310
2017-09-28T10:33:33.341Z,102308
2017-09-28T10:36:02.604Z,102317
2017-09-28T10:38:32.180Z,102322
2017-09-28T10:41:01.282Z,102323
2017-09-28T10:43:30.438Z,102333
2017-09-28T10:46:00.407Z,102335
2017-09-28T10:48:29.573Z,102340
2017-09-28T10:50:59.595Z,102341
2017-09-28T10:53:29.197Z,102346
2017-09-28T10:55:58.402Z,102341
2017-09-28T10:58:27.573Z,102345
2017-09-28T11:00:57.102Z,102336
2017-09-28T11:03:27.528Z,102332
2017-09-28T11:05:56.934Z,102331
2017-09-28T11:08:27.250Z,102330
2017-09-28T11:10:56.430Z,102331
2017-09-28T11:13:25.726Z,102333
2017-09-28T11:15:55.257Z,102331
2017-09-28T11:18:24.560Z,102319
2017-09-28T11:20:53.748Z,102323
2017-09-28T11:23:23.261Z,102321
2017-09-28T11:25:53.637Z,102324
2017-09-28T11:28:22.861Z,102322
2017-09-28T11:30:54.181Z,102319
2017-09-28T11:33:23.324Z,102324
2017-09-28T11:35:52.520Z,102318
2017-09-28T11:38:22.205Z,102322
2017-09-28T11:40:52.862Z,102316
2017-09-28T11:43:22.985Z,102315
2017-09-28T11:45:52.549Z,102311
2017-09-28T11:48:21.734Z,102305
2017-09-28T11:50:50.993Z,102307
2017-09-28T11:53:21.315Z,102294
2017-09-28T11:55:50.719Z,102297
2017-09-28T11:58:22.960Z,102295
2017-09-28T12:00:56.494Z,102294
2017-09-28T12:03:26.233Z,102283
2017-09-28T12:05:56.185Z,102285
2017-09-28T12:08:25.867Z,102279
2017-09-28T12:10:55.131Z,102282
2017-09-28T12:13:26.823Z,102275
2017-09-28T12:15:57.530Z,102273
2017-09-28T12:18:28.463Z,102272
2017-09-28T12:21:02.803Z,102273
2017-09-28T12:23:32.833Z,102272
2017-09-28T12:26:03.261Z,102268
2017-09-28T12:28:33.042Z,102274
2017-09-28T12:31:03.767Z,102273
2017-09-28T12:33:36.658Z,102277
2017-09-28T12:36:06.215Z,102268
2017-09-28T12:38:41.509Z,102272
2017-09-28T12:41:11.960Z,102284
2017-09-28T12:43:41.872Z,102279
2017-09-28T12:46:12.611Z,102285
2017-09-28T12:48:41.734Z,102284
2017-09-28T12:51:10.876Z,102285
2017-09-28T12:53:40.139Z,102286
2017-09-28T12:56:09.416Z,102281
2017-09-28T12:58:40.449Z,102282
2017-09-28T13:01:11.745Z,102287
2017-09-28T13:03:40.921Z,102291
2017-09-28T13:06:10.371Z,102279
2017-09-28T13:08:39.713Z,102282
2017-09-28T13:11:08.910Z,102283
2017-09-28T13:13:39.033Z,102281
2017-09-28T13:16:08.406Z,102278
2017-09-28T13:18:38.553Z,102275
2017-09-28T13:21:13.968Z,102274
2017-09-28T13:23:44.037Z,102268
2017-09-28T13:26:14.006Z,102270
2017-09-28T13:28:43.304Z,102269
2017-09-28T13:31:12.392Z,102265
2017-09-28T13:33:41.982Z,102270
2017-09-28T13:36:11.642Z,102274
2017-09-28T13:38:40.787Z,102273
2017-09-28T13:41:12.007Z,102272
2017-09-28T13:43:42.235Z,102274
2017-09-28T13:46:11.416Z,102280
2017-09-28T13:48:40.598Z,102280
2017-09-28T13:51:10.154Z,102278
2017-09-28T13:53:39.298Z,102269
2017-09-28T13:56:08.496Z,102269
2017-09-28T13:58:37.918Z,102273
2017-09-28T14:01:07.812Z,102268
2017-09-28T14:03:36.986Z,102273
2017-09-28T14:06:07.771Z,102278
2017-09-28T14:08:36.898Z,102271
2017-09-28T14:11:06.048Z,102278
2017-09-28T14:13:35.211Z,102273
2017-09-28T14:16:04.352Z,102275
2017-09-28T14:18:33.507Z,102274
2017-09-28T14:21:03.245Z,102273
2017-09-28T14:23:32.439Z,102272
2017-09-28T14:26:01.642Z,102273
2017-09-28T14:28:31.069Z,102273
2017-09-28T14:31:01.953Z,102267
2017-09-28T14:33:35.502Z,102261
2017-09-28T14:36:07.491Z,102266
2017-09-28T14:38:38.076Z,102264
2017-09-28T14:41:09.031Z,102266
2017-09-28T14:43:38.262Z,102264
2017-09-28T14:46:07.552Z,102262
2017-09-28T14:48:36.702Z,102263
2017-09-28T14:51:07.003Z,102259
2017-09-28T14:53:37.868Z,102261
2017-09-28T14:56:08.919Z,102263
2017-09-28T14:58:39.264Z,102260
2017-09-28T15:01:08.409Z,102268
2017-09-28T15:03:37.558Z,102265
2017-09-28T15:06:06.843Z,102266
2017-09-28T15:08:36.743Z,102268
2017-09-28T15:11:06.722Z,102267
2017-09-28T15:13:36.165Z,102261
2017-09-28T15:16:06.204Z,102264
2017-09-28T15:18:35.891Z,102263
2017-09-28T15:21:06.281Z,102268
2017-09-28T15:23:35.832Z,102264
2017-09-28T15:26:04.953Z,102266
2017-09-28T15:28:35.098Z,102269
2017-09-28T15:31:04.262Z,102265
2017-09-28T15:33:33.394Z,102262
2017-09-28T15:36:02.833Z,102267
2017-09-28T15:38:31.952Z,102265
2017-09-28T15:41:02.894Z,102256
2017-09-28T15:43:33.241Z,102261
2017-09-28T15:46:04.464Z,102266
2017-09-28T15:48:35.215Z,102268
2017-09-28T15:51:05.114Z,102272
2017-09-28T15:53:35.026Z,102267
2017-09-28T15:56:04.722Z,102268
2017-09-28T15:58:34.947Z,102266
2017-09-28T16:01:05.457Z,102269
2017-09-28T16:03:37.247Z,102271
2017-09-28T16:06:08.175Z,102270
2017-09-28T16:08:37.323Z,102277
2017-09-28T16:11:14.327Z,102279
2017-09-28T16:13:44.782Z,102278
2017-09-28T16:16:14.312Z,102274
2017-09-28T16:18:44.920Z,102276
2017-09-28T16:21:20.951Z,102276
2017-09-28T16:23:52.023Z,102280
2017-09-28T16:26:22.829Z,102281
2017-09-28T16:28:53.263Z,102283
2017-09-28T16:31:22.573Z,102288
2017-09-28T16:33:52.102Z,102290
2017-09-28T16:36:22.287Z,102284
2017-09-28T16:38:51.636Z,102286
2017-09-28T16:41:21.858Z,102289
2017-09-28T16:43:51.351Z,102290
2017-09-28T16:46:20.721Z,102297
2017-09-28T16:48:51.681Z,102290
2017-09-28T16:51:21.155Z,102289
2017-09-28T16:53:50.462Z,102291
2017-09-28T16:56:19.706Z,102295
2017-09-28T16:58:49.300Z,102294
2017-09-28T17:01:19.531Z,102296
2017-09-28T17:03:48.959Z,102297
2017-09-28T17:06:19.324Z,102294
2017-09-28T17:08:48.613Z,102295
2017-09-28T17:11:17.843Z,102292
2017-09-28T17:13:47.457Z,102293
2017-09-28T17:16:16.663Z,102293
2017-09-28T17:18:45.860Z,102295
2017-09-28T17:21:15.359Z,102294
2017-09-28T17:23:44.487Z,102296
2017-09-28T17:26:14.494Z,102294
2017-09-28T17:28:44.518Z,102294
2017-09-28T17:31:14.556Z,102296
2017-09-28T17:33:45.706Z,102290
2017-09-28T17:36:14.836Z,102294
2017-09-28T17:38:44.017Z,102293
2017-09-28T17:41:13.787Z,102291
2017-09-28T17:43:42.922Z,102289
2017-09-28T17:46:12.738Z,102291
2017-09-28T17:48:42.232Z,102291
2017-09-28T17:51:12.135Z,102293
2017-09-28T17:53:42.708Z,102287
2017-09-28T17:56:13.968Z,102292
2017-09-28T17:58:43.080Z,102295
2017-09-28T18:01:13.887Z,102295
2017-09-28T18:03:44.478Z,102296
2017-09-28T18:06:13.639Z,102308
2017-09-28T18:08:43.711Z,102303
2017-09-28T18:11:13.611Z,102307
2017-09-28T18:13:42.766Z,102307
2017-09-28T18:16:13.638Z,102309
2017-09-28T18:18:43.172Z,102309
2017-09-28T18:21:12.362Z,102307
2017-09-28T18:23:42.486Z,102310
2017-09-28T18:26:12.102Z,102313
2017-09-28T18:28:41.229Z,102311
2017-09-28T18:31:10.492Z,102308
2017-09-28T18:33:40.069Z,102311
2017-09-28T18:36:09.167Z,102311
2017-09-28T18:38:38.271Z,102309
2017-09-28T18:41:08.043Z,102307
2017-09-28T18:43:37.671Z,102310
2017-09-28T18:46:07.032Z,102309
2017-09-28T18:48:36.271Z,102304
2017-09-28T18:51:05.445Z,102310
2017-09-28T18:53:35.677Z,102312
2017-09-28T18:56:05.126Z,102308
2017-09-28T18:58:34.328Z,102305
2017-09-28T19:01:03.438Z,102306
2017-09-28T19:03:33.344Z,102307
2017-09-28T19:06:03.112Z,102310
2017-09-28T19:08:33.529Z,102305
2017-09-28T19:11:02.682Z,102306
2017-09-28T19:13:31.847Z,102303
2017-09-28T19:16:02.195Z,102303
2017-09-28T19:18:31.395Z,102299
2017-09-28T19:21:01.191Z,102309
2017-09-28T19:23:30.730Z,102297
2017-09-28T19:26:01.796Z,102297
2017-09-28T19:28:31.447Z,102302
2017-09-28T19:31:00.702Z,102305
2017-09-28T19:33:30.004Z,102305
2017-09-28T19:36:00.256Z,102304
2017-09-28T19:38:30.375Z,102310
2017-09-28T19:41:01.045Z,102309
2017-09-28T19:43:30.684Z,102309
2017-09-28T19:46:01.477Z,102306
2017-09-28T19:48:31.660Z,102311
2017-09-28T19:51:01.005Z,102304
2017-09-28T19:53:30.610Z,102309
2017-09-28T19:56:00.315Z,102309
2017-09-28T19:58:29.758Z,102306
2017-09-28T20:00:59.097Z,102308
2017-09-28T20:03:29.295Z,102307
2017-09-28T20:05:59.719Z,102307
2017-09-28T20:08:29.221Z,102298
2017-09-28T20:10:59.340Z,102295
2017-09-28T20:13:28.788Z,102296
2017-09-28T20:15:58.459Z,102294
2017-09-28T20:18:28.495Z,102292
2017-09-28T20:20:57.902Z,102293
2017-09-28T20:23:27.391Z,102294
2017-09-28T20:25:57.058Z,102293
2017-09-28T20:28:27.045Z,102292
2017-09-28T20:30:57.514Z,102295
2017-09-28T20:33:27.072Z,102299
2017-09-28T20:35:56.556Z,102297
2017-09-28T20:38:27.103Z,102293
2017-09-28T20:40:57.449Z,102299
2017-09-28T20:43:27.026Z,102299
2017-09-28T20:45:56.888Z,102297
2017-09-28T20:48:26.351Z,102296
2017-09-28T20:50:55.875Z,102298
2017-09-28T20:53:27.083Z,102293
2017-09-28T20:55:56.435Z,102292
2017-09-28T20:58:25.971Z,102288
2017-09-28T21:00:57.875Z,102286
2017-09-28T21:03:28.088Z,102283
2017-09-28T21:05:57.523Z,102284
2017-09-28T21:08:27.062Z,102283
2017-09-28T21:10:56.330Z,102279
2017-09-28T21:13:26.568Z,102280
2017-09-28T21:15:57.055Z,102283
2017-09-28T21:18:27.276Z,102276
2017-09-28T21:20:56.780Z,102278
2017-09-28T21:23:26.106Z,102279
2017-09-28T21:25:55.367Z,102275
2017-09-28T21:28:24.777Z,102274
2017-09-28T21:30:54.621Z,102272
2017-09-28T21:33:24.505Z,102267
2017-09-28T21:35:53.936Z,102266
2017-09-28T21:38:23.681Z,102270
2017-09-28T21:40:53.144Z,102267
2017-09-28T21:43:23.180Z,102280
2017-09-28T21:45:52.818Z,102273
2017-09-28T21:48:24.006Z,102275
2017-09-28T21:50:53.601Z,102267
2017-09-28T21:53:23.952Z,102270
2017-09-28T21:55:53.311Z,102270
2017-09-28T21:58:23.939Z,102266
2017-09-28T22:00:53.491Z,102265
2017-09-28T22:03:23.609Z,102269
2017-09-28T22:05:54.340Z,102270
2017-09-28T22:08:23.511Z,102260
2017-09-28T22:10:52.744Z,102264
2017-09-28T22:13:22.838Z,102262
2017-09-28T22:15:52.252Z,102265
2017-09-28T22:18:22.112Z,102261
2017-09-28T22:20:52.196Z,102260
2017-09-28T22:23:23.234Z,102268
2017-09-28T22:25:53.656Z,102271
2017-09-28T22:28:22.957Z,102266
2017-09-28T22:30:52.261Z,102263
2017-09-28T22:33:22.623Z,102261
2017-09-28T22:35:52.202Z,102259
2017-09-28T22:38:23.292Z,102262
2017-09-28T22:40:52.490Z,102260
2017-09-28T22:43:22.812Z,102257
2017-09-28T22:45:52.546Z,102257
2017-09-28T22:48:21.785Z,102256
2017-09-28T22:50:51.781Z,102259
2017-09-28T22:53:22.208Z,102257
2017-09-28T22:55:51.721Z,102254
2017-09-28T22:58:21.872Z,102254
2017-09-28T23:00:51.351Z,102250
2017-09-28T23:03:21.062Z,102250
2017-09-28T23:05:50.611Z,102250
2017-09-28T23:08:23.475Z,102244
2017-09-28T23:10:52.749Z,102246
2017-09-28T23:13:22.508Z,102244
2017-09-28T23:15:52.450Z,102239
2017-09-28T23:18:23.721Z,102240
2017-09-28T23:20:54.256Z,102242
2017-09-28T23:23:24.302Z,102244
2017-09-28T23:25:54.595Z,102239
2017-09-28T23:28:25.047Z,102237
2017-09-28T23:30:55.060Z,102234
2017-09-28T23:33:24.517Z,102230
2017-09-28T23:35:55.107Z,102230
2017-09-28T23:38:25.558Z,102228
2017-09-28T23:40:55.634Z,102224
2017-09-28T23:43:25.633Z,102221
2017-09-28T23:45:54.908Z,102217
2017-09-28T23:48:24.416Z,102215
2017-09-28T23:50:54.182Z,102217
2017-09-28T23:53:23.515Z,102213
2017-09-28T23:55:53.836Z,102212
2017-09-28T23:58:23.532Z,102210
